sensor_id;sensor_type;location;lat;lon;timestamp;temperature;humidity
3256;DHT22;1640;48.504;9.224;2022-08-21T00:00:06;15.70;13.10
3256;DHT22;1640;48.504;9.224;2022-08-21T00:02:35;15.70;11.20
3256;DHT22;1640;48.504;9.224;2022-08-21T00:05:03;15.70;12.00
3256;DHT22;1640;48.504;9.224;2022-08-21T00:07:32;15.70;12.70
3256;DHT22;1640;48.504;9.224;2022-08-21T00:10:00;15.60;14.10
3256;DHT22;1640;48.504;9.224;2022-08-21T00:12:28;15.60;15.10
3256;DHT22;1640;48.504;9.224;2022-08-21T00:14:57;15.50;14.00
3256;DHT22;1640;48.504;9.224;2022-08-21T00:17:24;15.60;10.60
3256;DHT22;1640;48.504;9.224;2022-08-21T00:19:52;15.50;15.20
3256;DHT22;1640;48.504;9.224;2022-08-21T00:22:20;15.50;13.30
3256;DHT22;1640;48.504;9.224;2022-08-21T00:24:49;15.40;13.70
3256;DHT22;1640;48.504;9.224;2022-08-21T00:27:17;15.40;11.10
3256;DHT22;1640;48.504;9.224;2022-08-21T00:29:45;15.30;11.40
3256;DHT22;1640;48.504;9.224;2022-08-21T00:32:12;15.20;10.90
3256;DHT22;1640;48.504;9.224;2022-08-21T00:34:40;15.20;8.40
3256;DHT22;1640;48.504;9.224;2022-08-21T00:37:08;15.10;9.80
3256;DHT22;1640;48.504;9.224;2022-08-21T00:39:35;15.10;7.40
3256;DHT22;1640;48.504;9.224;2022-08-21T00:42:05;15.00;6.20
3256;DHT22;1640;48.504;9.224;2022-08-21T00:44:33;14.90;7.60
3256;DHT22;1640;48.504;9.224;2022-08-21T00:47:00;14.90;7.10
3256;DHT22;1640;48.504;9.224;2022-08-21T00:49:28;14.80;7.20
3256;DHT22;1640;48.504;9.224;2022-08-21T00:51:58;14.80;5.80
3256;DHT22;1640;48.504;9.224;2022-08-21T00:54:29;14.70;5.20
3256;DHT22;1640;48.504;9.224;2022-08-21T00:57:00;14.80;99.90
3256;DHT22;1640;48.504;9.224;2022-08-21T00:59:33;14.80;2.90
3256;DHT22;1640;48.504;9.224;2022-08-21T01:02:02;14.90;0.50
3256;DHT22;1640;48.504;9.224;2022-08-21T01:04:31;15.00;1.60
3256;DHT22;1640;48.504;9.224;2022-08-21T01:06:58;15.10;4.10
3256;DHT22;1640;48.504;9.224;2022-08-21T01:09:27;15.10;6.60
3256;DHT22;1640;48.504;9.224;2022-08-21T01:11:54;15.20;7.90
3256;DHT22;1640;48.504;9.224;2022-08-21T01:14:22;15.10;10.90
3256;DHT22;1640;48.504;9.224;2022-08-21T01:16:53;15.10;9.90
3256;DHT22;1640;48.504;9.224;2022-08-21T01:19:22;15.10;10.60
3256;DHT22;1640;48.504;9.224;2022-08-21T01:21:52;15.10;8.60
3256;DHT22;1640;48.504;9.224;2022-08-21T01:24:21;15.10;7.90
3256;DHT22;1640;48.504;9.224;2022-08-21T01:26:49;15.00;6.60
3256;DHT22;1640;48.504;9.224;2022-08-21T01:29:26;15.00;6.00
3256;DHT22;1640;48.504;9.224;2022-08-21T01:31:56;15.00;5.60
3256;DHT22;1640;48.504;9.224;2022-08-21T01:34:24;14.90;5.10
3256;DHT22;1640;48.504;9.224;2022-08-21T01:36:53;14.80;4.60
3256;DHT22;1640;48.504;9.224;2022-08-21T01:39:21;14.80;3.30
3256;DHT22;1640;48.504;9.224;2022-08-21T01:41:48;14.70;1.40
3256;DHT22;1640;48.504;9.224;2022-08-21T01:44:16;14.70;99.90
3256;DHT22;1640;48.504;9.224;2022-08-21T01:46:47;14.70;99.90
3256;DHT22;1640;48.504;9.224;2022-08-21T01:49:15;14.70;99.90
3256;DHT22;1640;48.504;9.224;2022-08-21T01:51:43;14.70;99.90
3256;DHT22;1640;48.504;9.224;2022-08-21T01:54:12;14.70;1.10
3256;DHT22;1640;48.504;9.224;2022-08-21T01:56:42;14.60;2.50
3256;DHT22;1640;48.504;9.224;2022-08-21T01:59:11;14.60;1.30
3256;DHT22;1640;48.504;9.224;2022-08-21T02:01:38;14.70;1.00
3256;DHT22;1640;48.504;9.224;2022-08-21T02:04:07;14.60;1.30
3256;DHT22;1640;48.504;9.224;2022-08-21T02:06:35;14.60;3.50
3256;DHT22;1640;48.504;9.224;2022-08-21T02:09:04;14.60;3.00
3256;DHT22;1640;48.504;9.224;2022-08-21T02:11:34;14.50;3.20
3256;DHT22;1640;48.504;9.224;2022-08-21T02:14:02;14.50;0.70
3256;DHT22;1640;48.504;9.224;2022-08-21T02:16:30;14.50;99.90
3256;DHT22;1640;48.504;9.224;2022-08-21T02:18:58;14.60;99.90
3256;DHT22;1640;48.504;9.224;2022-08-21T02:21:25;14.60;1.30
3256;DHT22;1640;48.504;9.224;2022-08-21T02:23:53;14.50;2.20
3256;DHT22;1640;48.504;9.224;2022-08-21T02:26:21;14.40;4.20
3256;DHT22;1640;48.504;9.224;2022-08-21T02:28:50;14.30;7.50
3256;DHT22;1640;48.504;9.224;2022-08-21T02:31:18;14.20;5.60
3256;DHT22;1640;48.504;9.224;2022-08-21T02:33:45;14.10;3.90
3256;DHT22;1640;48.504;9.224;2022-08-21T02:36:13;14.10;99.90
3256;DHT22;1640;48.504;9.224;2022-08-21T02:38:42;14.20;99.90
3256;DHT22;1640;48.504;9.224;2022-08-21T02:41:13;14.10;99.90
3256;DHT22;1640;48.504;9.224;2022-08-21T02:43:41;14.20;99.90
3256;DHT22;1640;48.504;9.224;2022-08-21T02:46:13;14.20;99.90
3256;DHT22;1640;48.504;9.224;2022-08-21T02:48:42;14.20;99.90
3256;DHT22;1640;48.504;9.224;2022-08-21T02:51:11;14.20;99.90
3256;DHT22;1640;48.504;9.224;2022-08-21T02:53:40;14.10;99.90
3256;DHT22;1640;48.504;9.224;2022-08-21T02:56:09;14.10;99.90
3256;DHT22;1640;48.504;9.224;2022-08-21T02:58:40;14.00;99.90
3256;DHT22;1640;48.504;9.224;2022-08-21T03:01:10;13.90;99.90
3256;DHT22;1640;48.504;9.224;2022-08-21T03:03:40;13.90;99.90
3256;DHT22;1640;48.504;9.224;2022-08-21T03:06:10;13.70;99.90
3256;DHT22;1640;48.504;9.224;2022-08-21T03:08:38;13.80;99.90
3256;DHT22;1640;48.504;9.224;2022-08-21T03:11:06;13.80;99.90
3256;DHT22;1640;48.504;9.224;2022-08-21T03:13:34;13.90;99.90
3256;DHT22;1640;48.504;9.224;2022-08-21T03:16:02;13.80;99.90
3256;DHT22;1640;48.504;9.224;2022-08-21T03:18:31;13.80;99.90
3256;DHT22;1640;48.504;9.224;2022-08-21T03:20:59;13.80;99.90
3256;DHT22;1640;48.504;9.224;2022-08-21T03:23:27;13.80;99.90
3256;DHT22;1640;48.504;9.224;2022-08-21T03:25:56;13.80;99.90
3256;DHT22;1640;48.504;9.224;2022-08-21T03:28:24;13.80;99.90
3256;DHT22;1640;48.504;9.224;2022-08-21T03:30:53;13.90;99.90
3256;DHT22;1640;48.504;9.224;2022-08-21T03:33:21;13.90;99.90
3256;DHT22;1640;48.504;9.224;2022-08-21T03:35:55;13.80;99.90
3256;DHT22;1640;48.504;9.224;2022-08-21T03:38:24;13.70;99.90
3256;DHT22;1640;48.504;9.224;2022-08-21T03:40:51;13.70;99.90
3256;DHT22;1640;48.504;9.224;2022-08-21T03:43:19;13.60;99.90
3256;DHT22;1640;48.504;9.224;2022-08-21T03:45:47;13.60;99.90
3256;DHT22;1640;48.504;9.224;2022-08-21T03:48:14;13.50;99.90
3256;DHT22;1640;48.504;9.224;2022-08-21T03:50:43;13.50;99.90
3256;DHT22;1640;48.504;9.224;2022-08-21T03:53:15;13.50;99.90
3256;DHT22;1640;48.504;9.224;2022-08-21T03:55:43;13.50;99.90
3256;DHT22;1640;48.504;9.224;2022-08-21T03:58:12;13.50;99.90
3256;DHT22;1640;48.504;9.224;2022-08-21T04:00:40;13.50;99.90
3256;DHT22;1640;48.504;9.224;2022-08-21T04:03:08;13.40;99.90
3256;DHT22;1640;48.504;9.224;2022-08-21T04:05:35;13.40;99.90
3256;DHT22;1640;48.504;9.224;2022-08-21T04:08:05;13.40;99.90
3256;DHT22;1640;48.504;9.224;2022-08-21T04:10:36;13.40;99.90
3256;DHT22;1640;48.504;9.224;2022-08-21T04:13:05;13.40;99.90
3256;DHT22;1640;48.504;9.224;2022-08-21T04:15:33;13.30;99.90
3256;DHT22;1640;48.504;9.224;2022-08-21T04:18:01;13.30;99.90
3256;DHT22;1640;48.504;9.224;2022-08-21T04:20:29;13.20;99.90
3256;DHT22;1640;48.504;9.224;2022-08-21T04:22:57;13.20;99.90
3256;DHT22;1640;48.504;9.224;2022-08-21T04:25:25;13.20;99.90
3256;DHT22;1640;48.504;9.224;2022-08-21T04:27:54;13.20;99.90
3256;DHT22;1640;48.504;9.224;2022-08-21T04:30:22;13.30;99.90
3256;DHT22;1640;48.504;9.224;2022-08-21T04:32:50;13.30;99.90
3256;DHT22;1640;48.504;9.224;2022-08-21T04:35:20;13.30;99.90
3256;DHT22;1640;48.504;9.224;2022-08-21T04:37:48;13.30;99.90
3256;DHT22;1640;48.504;9.224;2022-08-21T04:40:18;13.30;99.90
3256;DHT22;1640;48.504;9.224;2022-08-21T04:42:48;13.20;99.90
3256;DHT22;1640;48.504;9.224;2022-08-21T04:45:20;13.20;99.90
3256;DHT22;1640;48.504;9.224;2022-08-21T04:47:49;13.20;99.90
3256;DHT22;1640;48.504;9.224;2022-08-21T04:50:18;13.20;99.90
3256;DHT22;1640;48.504;9.224;2022-08-21T04:52:46;13.20;99.90
3256;DHT22;1640;48.504;9.224;2022-08-21T04:55:15;13.30;99.90
3256;DHT22;1640;48.504;9.224;2022-08-21T04:57:44;13.30;99.90
3256;DHT22;1640;48.504;9.224;2022-08-21T05:00:13;13.30;99.90
3256;DHT22;1640;48.504;9.224;2022-08-21T05:02:42;13.40;99.90
3256;DHT22;1640;48.504;9.224;2022-08-21T05:05:10;13.40;99.90
3256;DHT22;1640;48.504;9.224;2022-08-21T05:07:38;13.40;99.90
3256;DHT22;1640;48.504;9.224;2022-08-21T05:10:06;13.40;99.90
3256;DHT22;1640;48.504;9.224;2022-08-21T05:12:35;13.40;99.90
3256;DHT22;1640;48.504;9.224;2022-08-21T05:15:03;13.60;99.90
3256;DHT22;1640;48.504;9.224;2022-08-21T05:17:31;13.60;99.90
3256;DHT22;1640;48.504;9.224;2022-08-21T05:20:00;13.70;99.90
3256;DHT22;1640;48.504;9.224;2022-08-21T05:22:29;13.80;99.90
3256;DHT22;1640;48.504;9.224;2022-08-21T05:24:57;13.90;99.90
3256;DHT22;1640;48.504;9.224;2022-08-21T05:27:25;13.90;99.90
3256;DHT22;1640;48.504;9.224;2022-08-21T05:29:55;14.00;1.20
3256;DHT22;1640;48.504;9.224;2022-08-21T05:32:23;14.10;4.60
3256;DHT22;1640;48.504;9.224;2022-08-21T05:34:51;14.10;9.90
3256;DHT22;1640;48.504;9.224;2022-08-21T05:37:21;14.20;6.90
3256;DHT22;1640;48.504;9.224;2022-08-21T05:39:48;14.30;10.90
3256;DHT22;1640;48.504;9.224;2022-08-21T05:42:16;14.30;14.20
3256;DHT22;1640;48.504;9.224;2022-08-21T05:44:44;14.30;15.90
3256;DHT22;1640;48.504;9.224;2022-08-21T05:47:11;14.30;18.30
3256;DHT22;1640;48.504;9.224;2022-08-21T05:49:39;14.30;14.90
3256;DHT22;1640;48.504;9.224;2022-08-21T05:52:07;14.30;15.60
3256;DHT22;1640;48.504;9.224;2022-08-21T05:54:37;14.30;18.00
3256;DHT22;1640;48.504;9.224;2022-08-21T05:57:05;14.30;13.30
3256;DHT22;1640;48.504;9.224;2022-08-21T05:59:34;14.40;8.30
3256;DHT22;1640;48.504;9.224;2022-08-21T06:02:02;14.60;10.00
3256;DHT22;1640;48.504;9.224;2022-08-21T06:04:30;14.90;12.80
3256;DHT22;1640;48.504;9.224;2022-08-21T06:06:57;15.00;17.40
3256;DHT22;1640;48.504;9.224;2022-08-21T06:09:25;15.20;22.00
3256;DHT22;1640;48.504;9.224;2022-08-21T06:11:54;15.30;26.30
3256;DHT22;1640;48.504;9.224;2022-08-21T06:14:22;15.40;33.50
3256;DHT22;1640;48.504;9.224;2022-08-21T06:16:49;15.50;30.40
3256;DHT22;1640;48.504;9.224;2022-08-21T06:19:17;15.70;29.70
3256;DHT22;1640;48.504;9.224;2022-08-21T06:21:44;15.90;34.30
3256;DHT22;1640;48.504;9.224;2022-08-21T06:24:12;16.10;38.30
3256;DHT22;1640;48.504;9.224;2022-08-21T06:26:40;16.10;39.00
3256;DHT22;1640;48.504;9.224;2022-08-21T06:29:09;16.20;39.40
3256;DHT22;1640;48.504;9.224;2022-08-21T06:31:39;16.30;41.10
3256;DHT22;1640;48.504;9.224;2022-08-21T06:34:06;16.40;41.70
3256;DHT22;1640;48.504;9.224;2022-08-21T06:36:34;16.30;41.40
3256;DHT22;1640;48.504;9.224;2022-08-21T06:39:02;16.30;39.40
3256;DHT22;1640;48.504;9.224;2022-08-21T06:41:32;16.40;39.20
3256;DHT22;1640;48.504;9.224;2022-08-21T06:44:00;16.30;39.50
3256;DHT22;1640;48.504;9.224;2022-08-21T06:46:30;16.30;40.60
3256;DHT22;1640;48.504;9.224;2022-08-21T06:48:58;16.30;37.90
3256;DHT22;1640;48.504;9.224;2022-08-21T06:51:26;16.40;38.00
3256;DHT22;1640;48.504;9.224;2022-08-21T06:53:55;16.40;36.10
3256;DHT22;1640;48.504;9.224;2022-08-21T06:56:22;16.50;38.10
3256;DHT22;1640;48.504;9.224;2022-08-21T06:58:50;16.60;39.80
3256;DHT22;1640;48.504;9.224;2022-08-21T07:01:18;16.70;39.90
3256;DHT22;1640;48.504;9.224;2022-08-21T07:03:48;16.90;40.90
3256;DHT22;1640;48.504;9.224;2022-08-21T07:06:16;17.00;43.60
3256;DHT22;1640;48.504;9.224;2022-08-21T07:08:44;17.00;48.70
3256;DHT22;1640;48.504;9.224;2022-08-21T07:11:14;17.00;48.30
3256;DHT22;1640;48.504;9.224;2022-08-21T07:13:44;16.90;48.60
3256;DHT22;1640;48.504;9.224;2022-08-21T07:16:13;17.10;48.70
3256;DHT22;1640;48.504;9.224;2022-08-21T07:18:41;17.20;47.20
3256;DHT22;1640;48.504;9.224;2022-08-21T07:21:10;17.40;47.50
3256;DHT22;1640;48.504;9.224;2022-08-21T07:23:40;17.60;51.20
3256;DHT22;1640;48.504;9.224;2022-08-21T07:26:10;17.80;54.20
3256;DHT22;1640;48.504;9.224;2022-08-21T07:28:38;17.70;57.40
3256;DHT22;1640;48.504;9.224;2022-08-21T07:31:06;17.70;59.90
3256;DHT22;1640;48.504;9.224;2022-08-21T07:33:34;17.80;61.40
3256;DHT22;1640;48.504;9.224;2022-08-21T07:36:03;17.80;60.60
3256;DHT22;1640;48.504;9.224;2022-08-21T07:38:33;18.10;60.30
3256;DHT22;1640;48.504;9.224;2022-08-21T07:41:01;18.20;61.70
3256;DHT22;1640;48.504;9.224;2022-08-21T07:43:29;18.40;63.30
3256;DHT22;1640;48.504;9.224;2022-08-21T07:45:57;18.60;65.50
3256;DHT22;1640;48.504;9.224;2022-08-21T07:48:24;18.70;66.70
3256;DHT22;1640;48.504;9.224;2022-08-21T07:50:52;18.80;68.60
3256;DHT22;1640;48.504;9.224;2022-08-21T07:53:21;18.90;68.90
3256;DHT22;1640;48.504;9.224;2022-08-21T07:55:50;18.90;69.00
3256;DHT22;1640;48.504;9.224;2022-08-21T07:58:18;18.90;69.80
3256;DHT22;1640;48.504;9.224;2022-08-21T08:00:45;19.00;69.80
3256;DHT22;1640;48.504;9.224;2022-08-21T08:03:13;19.10;69.20
3256;DHT22;1640;48.504;9.224;2022-08-21T08:05:41;19.20;68.90
3256;DHT22;1640;48.504;9.224;2022-08-21T08:08:09;19.30;70.90
3256;DHT22;1640;48.504;9.224;2022-08-21T08:10:37;19.30;70.50
3256;DHT22;1640;48.504;9.224;2022-08-21T08:13:07;19.40;70.80
3256;DHT22;1640;48.504;9.224;2022-08-21T08:15:36;19.40;70.60
3256;DHT22;1640;48.504;9.224;2022-08-21T08:18:04;19.50;69.90
3256;DHT22;1640;48.504;9.224;2022-08-21T08:20:32;19.50;71.10
3256;DHT22;1640;48.504;9.224;2022-08-21T08:22:59;19.70;70.20
3256;DHT22;1640;48.504;9.224;2022-08-21T08:25:27;19.80;70.80
3256;DHT22;1640;48.504;9.224;2022-08-21T08:27:56;19.90;71.10
3256;DHT22;1640;48.504;9.224;2022-08-21T08:30:25;19.90;71.10
3256;DHT22;1640;48.504;9.224;2022-08-21T08:32:53;20.00;71.10
3256;DHT22;1640;48.504;9.224;2022-08-21T08:35:22;20.00;71.80
3256;DHT22;1640;48.504;9.224;2022-08-21T08:37:51;20.10;72.10
3256;DHT22;1640;48.504;9.224;2022-08-21T08:40:24;20.10;71.80
3256;DHT22;1640;48.504;9.224;2022-08-21T08:42:55;20.10;71.80
3256;DHT22;1640;48.504;9.224;2022-08-21T08:45:24;20.20;71.80
3256;DHT22;1640;48.504;9.224;2022-08-21T08:47:57;20.30;71.60
3256;DHT22;1640;48.504;9.224;2022-08-21T08:50:36;20.40;71.80
3256;DHT22;1640;48.504;9.224;2022-08-21T08:53:08;20.50;71.60
3256;DHT22;1640;48.504;9.224;2022-08-21T08:55:40;20.60;71.60
3256;DHT22;1640;48.504;9.224;2022-08-21T08:58:10;20.70;71.90
3256;DHT22;1640;48.504;9.224;2022-08-21T09:00:40;20.80;71.50
3256;DHT22;1640;48.504;9.224;2022-08-21T09:03:08;20.80;71.60
3256;DHT22;1640;48.504;9.224;2022-08-21T09:05:42;20.80;71.60
3256;DHT22;1640;48.504;9.224;2022-08-21T09:08:26;20.90;71.80
3256;DHT22;1640;48.504;9.224;2022-08-21T09:11:01;21.00;71.30
3256;DHT22;1640;48.504;9.224;2022-08-21T09:13:39;21.00;71.30
3256;DHT22;1640;48.504;9.224;2022-08-21T09:16:18;21.00;71.60
3256;DHT22;1640;48.504;9.224;2022-08-21T09:18:56;21.10;71.60
3256;DHT22;1640;48.504;9.224;2022-08-21T09:21:31;21.30;71.20
3256;DHT22;1640;48.504;9.224;2022-08-21T09:24:15;21.50;71.10
3256;DHT22;1640;48.504;9.224;2022-08-21T09:26:50;21.70;70.80
3256;DHT22;1640;48.504;9.224;2022-08-21T09:29:24;22.00;70.30
3256;DHT22;1640;48.504;9.224;2022-08-21T09:31:57;22.10;70.20
3256;DHT22;1640;48.504;9.224;2022-08-21T09:34:28;22.20;69.00
3256;DHT22;1640;48.504;9.224;2022-08-21T09:36:56;22.30;69.50
3256;DHT22;1640;48.504;9.224;2022-08-21T09:39:27;22.40;68.50
3256;DHT22;1640;48.504;9.224;2022-08-21T09:41:56;22.40;67.50
3256;DHT22;1640;48.504;9.224;2022-08-21T09:44:26;22.60;67.00
3256;DHT22;1640;48.504;9.224;2022-08-21T09:46:55;22.70;63.00
3256;DHT22;1640;48.504;9.224;2022-08-21T09:49:31;22.80;64.50
3256;DHT22;1640;48.504;9.224;2022-08-21T09:52:02;22.80;64.70
3256;DHT22;1640;48.504;9.224;2022-08-21T09:54:33;22.90;64.50
3256;DHT22;1640;48.504;9.224;2022-08-21T09:57:16;22.90;58.60
3256;DHT22;1640;48.504;9.224;2022-08-21T10:00:15;23.00;62.70
3256;DHT22;1640;48.504;9.224;2022-08-21T10:02:43;23.10;60.30
3256;DHT22;1640;48.504;9.224;2022-08-21T10:05:19;23.10;58.60
3256;DHT22;1640;48.504;9.224;2022-08-21T10:07:49;23.10;59.00
3256;DHT22;1640;48.504;9.224;2022-08-21T10:10:20;23.20;59.30
3256;DHT22;1640;48.504;9.224;2022-08-21T10:12:55;23.30;58.40
3256;DHT22;1640;48.504;9.224;2022-08-21T10:15:31;23.20;58.40
3256;DHT22;1640;48.504;9.224;2022-08-21T10:18:07;23.20;58.50
3256;DHT22;1640;48.504;9.224;2022-08-21T10:20:43;23.30;58.10
3256;DHT22;1640;48.504;9.224;2022-08-21T10:23:30;23.30;58.80
3256;DHT22;1640;48.504;9.224;2022-08-21T10:26:07;23.30;57.00
3256;DHT22;1640;48.504;9.224;2022-08-21T10:28:40;23.40;58.10
3256;DHT22;1640;48.504;9.224;2022-08-21T10:31:16;23.40;57.80
3256;DHT22;1640;48.504;9.224;2022-08-21T10:33:53;23.50;56.30
3256;DHT22;1640;48.504;9.224;2022-08-21T10:36:33;23.70;56.10
3256;DHT22;1640;48.504;9.224;2022-08-21T10:39:09;23.60;55.10
3256;DHT22;1640;48.504;9.224;2022-08-21T10:42:24;23.50;55.50
3256;DHT22;1640;48.504;9.224;2022-08-21T10:45:03;23.70;54.60
3256;DHT22;1640;48.504;9.224;2022-08-21T10:47:38;23.70;54.70
3256;DHT22;1640;48.504;9.224;2022-08-21T10:50:12;23.50;55.50
3256;DHT22;1640;48.504;9.224;2022-08-21T10:55:43;23.70;57.10
3256;DHT22;1640;48.504;9.224;2022-08-21T10:58:14;23.80;55.90
3256;DHT22;1640;48.504;9.224;2022-08-21T11:00:46;23.70;55.50
3256;DHT22;1640;48.504;9.224;2022-08-21T11:03:17;23.70;56.30
3256;DHT22;1640;48.504;9.224;2022-08-21T11:05:50;23.70;59.00
3256;DHT22;1640;48.504;9.224;2022-08-21T11:08:23;23.80;58.60
3256;DHT22;1640;48.504;9.224;2022-08-21T11:10:59;24.00;56.30
3256;DHT22;1640;48.504;9.224;2022-08-21T11:13:31;24.10;57.80
3256;DHT22;1640;48.504;9.224;2022-08-21T11:16:07;24.20;56.30
3256;DHT22;1640;48.504;9.224;2022-08-21T11:18:39;24.20;55.50
3256;DHT22;1640;48.504;9.224;2022-08-21T11:21:21;24.40;55.10
3256;DHT22;1640;48.504;9.224;2022-08-21T11:23:57;24.50;56.20
3256;DHT22;1640;48.504;9.224;2022-08-21T11:26:34;24.60;53.30
3256;DHT22;1640;48.504;9.224;2022-08-21T11:29:07;24.60;53.10
3256;DHT22;1640;48.504;9.224;2022-08-21T11:31:45;24.60;56.50
3256;DHT22;1640;48.504;9.224;2022-08-21T11:34:27;24.60;55.40
3256;DHT22;1640;48.504;9.224;2022-08-21T11:37:03;24.80;54.30
3256;DHT22;1640;48.504;9.224;2022-08-21T11:39:41;24.80;50.80
3256;DHT22;1640;48.504;9.224;2022-08-21T11:42:19;24.80;53.10
3256;DHT22;1640;48.504;9.224;2022-08-21T11:44:56;24.90;52.00
3256;DHT22;1640;48.504;9.224;2022-08-21T11:47:36;24.70;52.40
3256;DHT22;1640;48.504;9.224;2022-08-21T11:50:15;24.80;52.70
3256;DHT22;1640;48.504;9.224;2022-08-21T11:52:45;24.70;51.20
3256;DHT22;1640;48.504;9.224;2022-08-21T11:55:19;24.60;52.40
3256;DHT22;1640;48.504;9.224;2022-08-21T11:57:53;24.70;53.10
3256;DHT22;1640;48.504;9.224;2022-08-21T12:00:25;24.60;52.00
3256;DHT22;1640;48.504;9.224;2022-08-21T12:02:55;24.70;52.40
3256;DHT22;1640;48.504;9.224;2022-08-21T12:05:28;24.90;52.40
3256;DHT22;1640;48.504;9.224;2022-08-21T12:08:04;24.90;51.20
3256;DHT22;1640;48.504;9.224;2022-08-21T12:10:40;24.90;50.40
3256;DHT22;1640;48.504;9.224;2022-08-21T12:13:11;25.10;50.80
3256;DHT22;1640;48.504;9.224;2022-08-21T12:15:41;25.20;50.80
3256;DHT22;1640;48.504;9.224;2022-08-21T12:18:22;25.30;50.40
3256;DHT22;1640;48.504;9.224;2022-08-21T12:21:05;25.30;48.30
3256;DHT22;1640;48.504;9.224;2022-08-21T12:23:46;25.30;49.30
3256;DHT22;1640;48.504;9.224;2022-08-21T12:26:24;25.20;49.70
3256;DHT22;1640;48.504;9.224;2022-08-21T12:29:07;25.20;50.80
3256;DHT22;1640;48.504;9.224;2022-08-21T12:31:48;25.30;47.10
3256;DHT22;1640;48.504;9.224;2022-08-21T12:34:17;25.40;49.90
3256;DHT22;1640;48.504;9.224;2022-08-21T12:36:52;25.50;48.00
3256;DHT22;1640;48.504;9.224;2022-08-21T12:39:23;25.40;49.70
3256;DHT22;1640;48.504;9.224;2022-08-21T12:41:57;25.30;48.50
3256;DHT22;1640;48.504;9.224;2022-08-21T12:44:31;25.40;48.50
3256;DHT22;1640;48.504;9.224;2022-08-21T12:47:04;25.40;48.70
3256;DHT22;1640;48.504;9.224;2022-08-21T12:49:35;25.50;48.70
3256;DHT22;1640;48.504;9.224;2022-08-21T12:52:11;25.60;48.60
3256;DHT22;1640;48.504;9.224;2022-08-21T12:54:42;25.60;48.50
3256;DHT22;1640;48.504;9.224;2022-08-21T12:57:21;25.60;47.90
3256;DHT22;1640;48.504;9.224;2022-08-21T12:59:56;25.60;46.80
3256;DHT22;1640;48.504;9.224;2022-08-21T13:02:27;25.70;49.10
3256;DHT22;1640;48.504;9.224;2022-08-21T13:04:56;25.70;46.80
3256;DHT22;1640;48.504;9.224;2022-08-21T13:07:28;25.60;47.90
3256;DHT22;1640;48.504;9.224;2022-08-21T13:09:59;25.60;47.50
3256;DHT22;1640;48.504;9.224;2022-08-21T13:12:31;25.70;48.30
3256;DHT22;1640;48.504;9.224;2022-08-21T13:15:05;25.90;46.60
3256;DHT22;1640;48.504;9.224;2022-08-21T13:17:36;25.90;44.90
3256;DHT22;1640;48.504;9.224;2022-08-21T13:20:08;25.90;44.50
3256;DHT22;1640;48.504;9.224;2022-08-21T13:22:40;25.80;46.80
3256;DHT22;1640;48.504;9.224;2022-08-21T13:25:10;25.90;46.40
3256;DHT22;1640;48.504;9.224;2022-08-21T13:27:41;26.00;48.30
3256;DHT22;1640;48.504;9.224;2022-08-21T13:30:11;26.10;47.00
3256;DHT22;1640;48.504;9.224;2022-08-21T13:32:43;26.20;45.10
3256;DHT22;1640;48.504;9.224;2022-08-21T13:35:14;26.20;45.70
3256;DHT22;1640;48.504;9.224;2022-08-21T13:37:43;26.20;45.30
3256;DHT22;1640;48.504;9.224;2022-08-21T13:40:15;26.30;49.40
3256;DHT22;1640;48.504;9.224;2022-08-21T13:42:47;26.40;46.80
3256;DHT22;1640;48.504;9.224;2022-08-21T13:45:21;26.10;44.20
3256;DHT22;1640;48.504;9.224;2022-08-21T13:47:50;26.00;46.10
3256;DHT22;1640;48.504;9.224;2022-08-21T13:50:21;26.00;45.20
3256;DHT22;1640;48.504;9.224;2022-08-21T13:52:57;25.80;45.50
3256;DHT22;1640;48.504;9.224;2022-08-21T13:55:39;25.70;44.50
3256;DHT22;1640;48.504;9.224;2022-08-21T13:58:10;25.60;46.30
3256;DHT22;1640;48.504;9.224;2022-08-21T14:00:45;25.70;45.60
3256;DHT22;1640;48.504;9.224;2022-08-21T14:03:27;25.80;44.90
3256;DHT22;1640;48.504;9.224;2022-08-21T14:05:55;26.10;45.60
3256;DHT22;1640;48.504;9.224;2022-08-21T14:08:28;26.30;43.20
3256;DHT22;1640;48.504;9.224;2022-08-21T14:10:57;26.30;43.70
3256;DHT22;1640;48.504;9.224;2022-08-21T14:13:37;26.50;42.90
3256;DHT22;1640;48.504;9.224;2022-08-21T14:16:15;26.60;42.80
3256;DHT22;1640;48.504;9.224;2022-08-21T14:18:51;26.70;43.60
3256;DHT22;1640;48.504;9.224;2022-08-21T14:21:31;26.80;41.80
3256;DHT22;1640;48.504;9.224;2022-08-21T14:24:02;27.00;41.00
3256;DHT22;1640;48.504;9.224;2022-08-21T14:26:31;27.10;40.60
3256;DHT22;1640;48.504;9.224;2022-08-21T14:29:01;27.10;41.40
3256;DHT22;1640;48.504;9.224;2022-08-21T14:31:32;27.10;44.00
3256;DHT22;1640;48.504;9.224;2022-08-21T14:34:01;27.20;40.60
3256;DHT22;1640;48.504;9.224;2022-08-21T14:36:28;27.20;41.90
3256;DHT22;1640;48.504;9.224;2022-08-21T14:38:56;27.10;40.40
3256;DHT22;1640;48.504;9.224;2022-08-21T14:41:25;27.00;43.20
3256;DHT22;1640;48.504;9.224;2022-08-21T14:43:56;27.10;43.20
3256;DHT22;1640;48.504;9.224;2022-08-21T14:46:29;27.20;41.50
3256;DHT22;1640;48.504;9.224;2022-08-21T14:48:58;27.20;41.10
3256;DHT22;1640;48.504;9.224;2022-08-21T14:51:25;27.40;38.80
3256;DHT22;1640;48.504;9.224;2022-08-21T14:53:53;28.00;36.60
3256;DHT22;1640;48.504;9.224;2022-08-21T14:56:21;29.10;34.70
3256;DHT22;1640;48.504;9.224;2022-08-21T14:58:51;30.50;31.90
3256;DHT22;1640;48.504;9.224;2022-08-21T15:01:22;31.70;29.50
3256;DHT22;1640;48.504;9.224;2022-08-21T15:03:51;32.80;28.30
3256;DHT22;1640;48.504;9.224;2022-08-21T15:06:19;33.60;27.20
3256;DHT22;1640;48.504;9.224;2022-08-21T15:08:47;34.20;26.40
3256;DHT22;1640;48.504;9.224;2022-08-21T15:11:18;35.10;26.40
3256;DHT22;1640;48.504;9.224;2022-08-21T15:13:46;35.40;25.90
3256;DHT22;1640;48.504;9.224;2022-08-21T15:16:13;35.60;26.00
3256;DHT22;1640;48.504;9.224;2022-08-21T15:18:41;36.30;25.00
3256;DHT22;1640;48.504;9.224;2022-08-21T15:21:10;37.20;24.00
3256;DHT22;1640;48.504;9.224;2022-08-21T15:23:38;37.80;22.80
3256;DHT22;1640;48.504;9.224;2022-08-21T15:26:05;38.10;21.80
3256;DHT22;1640;48.504;9.224;2022-08-21T15:28:34;36.70;22.90
3256;DHT22;1640;48.504;9.224;2022-08-21T15:31:03;35.90;23.50
3256;DHT22;1640;48.504;9.224;2022-08-21T15:33:31;35.50;24.10
3256;DHT22;1640;48.504;9.224;2022-08-21T15:35:58;35.50;23.40
3256;DHT22;1640;48.504;9.224;2022-08-21T15:38:28;35.20;23.70
3256;DHT22;1640;48.504;9.224;2022-08-21T15:40:55;35.60;25.40
3256;DHT22;1640;48.504;9.224;2022-08-21T15:43:33;36.10;24.50
3256;DHT22;1640;48.504;9.224;2022-08-21T15:46:02;36.60;23.80
3256;DHT22;1640;48.504;9.224;2022-08-21T15:48:31;36.00;24.20
3256;DHT22;1640;48.504;9.224;2022-08-21T15:50:59;35.40;24.30
3256;DHT22;1640;48.504;9.224;2022-08-21T15:53:28;34.30;26.10
3256;DHT22;1640;48.504;9.224;2022-08-21T15:56:00;34.50;25.20
3256;DHT22;1640;48.504;9.224;2022-08-21T15:58:29;34.30;25.10
3256;DHT22;1640;48.504;9.224;2022-08-21T16:00:58;34.20;26.60
3256;DHT22;1640;48.504;9.224;2022-08-21T16:03:27;34.50;25.10
3256;DHT22;1640;48.504;9.224;2022-08-21T16:05:55;34.60;24.30
3256;DHT22;1640;48.504;9.224;2022-08-21T16:08:24;34.30;25.50
3256;DHT22;1640;48.504;9.224;2022-08-21T16:10:54;34.30;26.60
3256;DHT22;1640;48.504;9.224;2022-08-21T16:13:29;34.20;25.90
3256;DHT22;1640;48.504;9.224;2022-08-21T16:15:56;34.30;26.00
3256;DHT22;1640;48.504;9.224;2022-08-21T16:18:24;34.40;25.50
3256;DHT22;1640;48.504;9.224;2022-08-21T16:20:53;34.30;25.90
3256;DHT22;1640;48.504;9.224;2022-08-21T16:23:21;34.30;26.50
3256;DHT22;1640;48.504;9.224;2022-08-21T16:25:48;34.10;26.10
3256;DHT22;1640;48.504;9.224;2022-08-21T16:28:19;34.10;26.20